createdAt,value
2022-09-18T00:00:59.986Z,0.00
2022-09-18T00:01:59.988Z,0.00
2022-09-18T00:03:00.021Z,0.00
2022-09-18T00:03:59.946Z,0.00
2022-09-18T00:05:00.027Z,0.00
2022-09-18T00:05:59.927Z,0.00
2022-09-18T00:06:59.925Z,0.00
2022-09-18T00:07:59.911Z,0.00
2022-09-18T00:08:59.982Z,0.00
2022-09-18T00:09:59.887Z,0.00
2022-09-18T00:10:59.910Z,0.00
2022-09-18T00:11:59.863Z,0.00
2022-09-18T00:12:59.859Z,0.00
2022-09-18T00:13:59.840Z,0.00
2022-09-18T00:14:59.831Z,0.00
2022-09-18T00:15:59.871Z,0.00
2022-09-18T00:16:59.848Z,0.00
2022-09-18T00:17:59.800Z,0.00
2022-09-18T00:18:59.790Z,0.00
2022-09-18T00:19:59.780Z,0.00
2022-09-18T00:20:59.771Z,0.00
2022-09-18T00:21:59.753Z,0.00
2022-09-18T00:22:59.790Z,0.00
2022-09-18T00:23:59.825Z,0.00
2022-09-18T00:24:59.733Z,0.00
2022-09-18T00:25:59.713Z,0.00
2022-09-18T00:26:59.710Z,0.00
2022-09-18T00:27:59.694Z,0.00
2022-09-18T00:28:59.723Z,0.00
2022-09-18T00:29:59.673Z,0.00
2022-09-18T00:30:59.689Z,0.00
2022-09-18T00:31:59.653Z,0.00
2022-09-18T00:32:59.651Z,0.00
2022-09-18T00:33:59.634Z,0.00
2022-09-18T00:34:59.653Z,0.00
2022-09-18T00:35:59.615Z,0.00
2022-09-18T00:36:59.613Z,0.00
2022-09-18T00:37:59.584Z,0.00
2022-09-18T00:38:59.679Z,0.00
2022-09-18T00:39:59.582Z,0.00
2022-09-18T00:40:59.594Z,0.00
2022-09-18T00:41:59.546Z,0.00
2022-09-18T00:42:59.542Z,0.00
2022-09-18T00:43:59.527Z,0.00
2022-09-18T00:44:59.525Z,0.00
2022-09-18T00:45:59.506Z,0.00
2022-09-18T00:46:59.629Z,0.00
2022-09-18T00:47:59.487Z,0.00
2022-09-18T00:48:59.479Z,0.00
2022-09-18T00:49:59.468Z,0.00
2022-09-18T00:50:59.466Z,0.00
2022-09-18T00:51:59.445Z,0.00
2022-09-18T00:52:59.473Z,0.00
2022-09-18T00:53:59.430Z,0.00
2022-09-18T00:54:59.418Z,0.00
2022-09-18T00:55:59.407Z,0.00
2022-09-18T00:56:59.398Z,0.00
2022-09-18T00:57:59.389Z,0.00
2022-09-18T00:58:59.406Z,0.00
2022-09-18T00:59:59.368Z,0.00
2022-09-18T01:00:59.379Z,0.00
2022-09-18T01:01:59.367Z,0.00
2022-09-18T01:02:59.340Z,0.00
2022-09-18T01:03:59.326Z,0.00
2022-09-18T01:04:59.353Z,0.00
2022-09-18T01:05:59.307Z,0.00
2022-09-18T01:06:59.299Z,0.00
2022-09-18T01:07:59.289Z,0.00
2022-09-18T01:08:59.359Z,0.00
2022-09-18T01:09:59.264Z,0.00
2022-09-18T01:10:59.281Z,0.00
2022-09-18T01:11:59.242Z,0.00
2022-09-18T01:12:59.242Z,0.00
2022-09-18T01:13:59.220Z,0.00
2022-09-18T01:14:59.220Z,0.00
2022-09-18T01:15:59.266Z,0.00
2022-09-18T01:16:59.234Z,0.00
2022-09-18T01:17:59.189Z,0.00
2022-09-18T01:18:59.181Z,0.00
2022-09-18T01:19:59.165Z,0.00
2022-09-18T01:20:59.152Z,0.00
2022-09-18T01:21:59.142Z,0.00
2022-09-18T01:22:59.163Z,0.00
2022-09-18T01:23:59.143Z,0.00
2022-09-18T01:24:59.122Z,0.00
2022-09-18T01:25:59.094Z,0.00
2022-09-18T01:26:59.101Z,0.00
2022-09-18T01:27:59.081Z,0.00
2022-09-18T01:28:59.104Z,0.00
2022-09-18T01:29:59.062Z,0.00
2022-09-18T01:30:59.075Z,0.00
2022-09-18T01:31:59.045Z,0.00
2022-09-18T01:32:59.040Z,0.00
2022-09-18T01:33:59.015Z,0.00
2022-09-18T01:34:59.048Z,0.00
2022-09-18T01:35:58.997Z,0.00
2022-09-18T01:36:59.007Z,0.00
2022-09-18T01:37:58.975Z,0.00
2022-09-18T01:38:59.022Z,0.00
2022-09-18T01:39:59.040Z,0.00
2022-09-18T01:40:58.977Z,0.00
2022-09-18T01:41:58.936Z,0.00
2022-09-18T01:42:58.929Z,0.00
2022-09-18T01:43:58.917Z,0.00
2022-09-18T01:44:58.908Z,0.00
2022-09-18T01:45:58.899Z,0.00
2022-09-18T01:46:58.967Z,0.00
2022-09-18T01:47:58.880Z,0.00
2022-09-18T01:48:58.869Z,0.00
2022-09-18T01:49:58.860Z,0.00
2022-09-18T01:50:58.850Z,0.00
2022-09-18T01:51:58.830Z,0.00
2022-09-18T01:52:58.867Z,0.00
2022-09-18T01:53:58.895Z,0.00
2022-09-18T01:54:58.809Z,0.00
2022-09-18T01:55:58.789Z,0.00
2022-09-18T01:56:58.786Z,0.00
2022-09-18T01:57:58.779Z,0.00
2022-09-18T01:58:58.801Z,0.00
2022-09-18T01:59:58.752Z,0.00
2022-09-18T02:00:58.750Z,0.00
2022-09-18T02:01:58.836Z,0.00
2022-09-18T02:02:58.742Z,0.00
2022-09-18T02:04:01.501Z,0.00
2022-09-18T02:04:58.756Z,0.00
2022-09-18T02:05:58.698Z,0.00
2022-09-18T02:06:58.691Z,0.00
2022-09-18T02:07:58.671Z,0.00
2022-09-18T02:08:58.695Z,0.00
2022-09-18T02:09:58.653Z,0.00
2022-09-18T02:10:58.672Z,0.00
2022-09-18T02:11:58.635Z,0.00
2022-09-18T02:12:58.625Z,0.00
2022-09-18T02:13:58.614Z,0.00
2022-09-18T02:14:58.613Z,0.00
2022-09-18T02:15:58.661Z,0.00
2022-09-18T02:16:58.606Z,0.00
2022-09-18T02:17:58.574Z,0.00
2022-09-18T02:18:58.564Z,0.00
2022-09-18T02:19:58.544Z,0.00
2022-09-18T02:20:58.545Z,0.00
2022-09-18T02:21:58.535Z,0.00
2022-09-18T02:22:58.553Z,0.00
2022-09-18T02:23:58.506Z,0.00
2022-09-18T02:24:58.496Z,0.00
2022-09-18T02:25:58.500Z,0.00
2022-09-18T02:26:58.487Z,0.00
2022-09-18T02:27:58.468Z,0.00
2022-09-18T02:28:58.505Z,0.00
2022-09-18T02:29:58.455Z,0.00
2022-09-18T02:30:58.486Z,0.00
2022-09-18T02:31:58.427Z,0.00
2022-09-18T02:32:58.427Z,0.00
2022-09-18T02:33:58.409Z,0.00
2022-09-18T02:34:58.434Z,0.00
2022-09-18T02:35:58.386Z,0.00
2022-09-18T02:36:58.386Z,0.00
2022-09-18T02:37:58.366Z,0.00
2022-09-18T02:38:58.358Z,0.00
2022-09-18T02:39:58.378Z,0.00
2022-09-18T02:40:58.378Z,0.00
2022-09-18T02:41:58.327Z,0.00
2022-09-18T02:42:58.325Z,0.00
2022-09-18T02:43:58.309Z,0.00
2022-09-18T02:44:58.298Z,0.00
2022-09-18T02:45:58.279Z,0.00
2022-09-18T02:46:58.368Z,0.00
2022-09-18T02:47:58.260Z,0.00
2022-09-18T02:48:58.251Z,0.00
2022-09-18T02:49:58.251Z,0.00
2022-09-18T02:50:58.232Z,0.00
2022-09-18T02:51:58.221Z,0.00
2022-09-18T02:52:58.250Z,0.00
2022-09-18T02:53:58.210Z,0.00
2022-09-18T02:54:58.201Z,0.00
2022-09-18T02:55:58.195Z,0.00
2022-09-18T02:56:58.171Z,0.00
2022-09-18T02:57:58.168Z,0.00
2022-09-18T02:58:58.180Z,0.00
2022-09-18T02:59:58.144Z,0.00
2022-09-18T03:00:58.133Z,0.00
2022-09-18T03:01:58.230Z,0.00
2022-09-18T03:02:58.214Z,0.00
2022-09-18T03:03:58.102Z,0.00
2022-09-18T03:04:58.128Z,0.00
2022-09-18T03:05:58.084Z,0.00
2022-09-18T03:06:58.072Z,0.00
2022-09-18T03:07:58.064Z,0.00
2022-09-18T03:08:58.054Z,0.00
2022-09-18T03:09:58.044Z,0.00
2022-09-18T03:10:58.064Z,0.00
2022-09-18T03:11:58.026Z,0.00
2022-09-18T03:12:58.006Z,0.00
2022-09-18T03:13:58.006Z,0.00
2022-09-18T03:14:57.992Z,0.00
2022-09-18T03:15:58.011Z,0.00
2022-09-18T03:16:57.998Z,0.00
2022-09-18T03:17:57.966Z,0.00
2022-09-18T03:18:57.943Z,0.00
2022-09-18T03:19:57.944Z,0.00
2022-09-18T03:20:57.927Z,0.00
2022-09-18T03:21:57.915Z,0.00
2022-09-18T03:22:57.947Z,0.00
2022-09-18T03:23:57.909Z,0.00
2022-09-18T03:24:57.886Z,0.00
2022-09-18T03:25:57.877Z,0.00
2022-09-18T03:26:57.858Z,0.00
2022-09-18T03:27:57.857Z,0.00
2022-09-18T03:28:57.872Z,0.00
2022-09-18T03:29:57.849Z,0.00
2022-09-18T03:30:57.855Z,0.00
2022-09-18T03:31:57.891Z,0.00
2022-09-18T03:32:57.812Z,0.00
2022-09-18T03:33:57.799Z,0.00
2022-09-18T03:34:57.837Z,0.00
2022-09-18T03:35:57.781Z,0.00
2022-09-18T03:36:57.760Z,0.00
2022-09-18T03:37:57.758Z,0.00
2022-09-18T03:38:57.748Z,0.00
2022-09-18T03:39:57.792Z,0.00
2022-09-18T03:40:57.761Z,0.00
2022-09-18T03:41:57.710Z,0.00
2022-09-18T03:42:57.700Z,0.00
2022-09-18T03:43:57.693Z,0.00
2022-09-18T03:44:57.680Z,0.00
2022-09-18T03:45:57.673Z,0.00
2022-09-18T03:46:57.765Z,0.00
2022-09-18T03:47:57.653Z,0.00
2022-09-18T03:48:57.642Z,0.00
2022-09-18T03:49:57.640Z,0.00
2022-09-18T03:50:57.622Z,0.00
2022-09-18T03:51:57.617Z,0.00
2022-09-18T03:52:57.636Z,0.00
2022-09-18T03:53:57.583Z,0.00
2022-09-18T03:54:57.583Z,0.00
2022-09-18T03:55:57.563Z,0.00
2022-09-18T03:56:57.556Z,0.00
2022-09-18T03:57:57.553Z,0.00
2022-09-18T03:58:57.565Z,0.00
2022-09-18T03:59:57.532Z,0.00
2022-09-18T04:00:57.521Z,0.00
2022-09-18T04:01:57.718Z,0.00
2022-09-18T04:02:57.541Z,0.00
2022-09-18T04:03:57.484Z,0.00
2022-09-18T04:04:57.507Z,0.00
2022-09-18T04:05:57.457Z,0.00
2022-09-18T04:06:57.453Z,0.00
2022-09-18T04:07:57.446Z,0.00
2022-09-18T04:08:57.443Z,0.00
2022-09-18T04:09:57.425Z,0.00
2022-09-18T04:10:57.444Z,0.00
2022-09-18T04:11:57.397Z,0.00
2022-09-18T04:12:57.394Z,0.00
2022-09-18T04:13:57.383Z,0.00
2022-09-18T04:14:57.380Z,0.00
2022-09-18T04:15:57.423Z,0.00
2022-09-18T04:16:57.377Z,0.00
2022-09-18T04:17:57.309Z,1.00
2022-09-18T04:18:57.277Z,1.00
2022-09-18T04:19:57.266Z,1.00
2022-09-18T04:20:57.257Z,1.00
2022-09-18T04:21:57.249Z,1.00
2022-09-18T04:22:57.322Z,0.00
2022-09-18T04:23:57.230Z,1.00
2022-09-18T04:24:57.219Z,1.00
2022-09-18T04:25:57.198Z,2.00
2022-09-18T04:26:57.189Z,2.00
2022-09-18T04:27:57.192Z,2.00
2022-09-18T04:28:57.213Z,3.00
2022-09-18T04:29:57.160Z,2.00
2022-09-18T04:30:57.196Z,3.00
2022-09-18T04:31:57.132Z,3.00
2022-09-18T04:32:57.132Z,3.00
2022-09-18T04:33:57.114Z,4.00
2022-09-18T04:34:57.149Z,4.00
2022-09-18T04:35:57.114Z,5.00
2022-09-18T04:36:57.081Z,5.00
2022-09-18T04:37:57.083Z,5.00
2022-09-18T04:38:57.062Z,5.00
2022-09-18T04:39:57.123Z,5.00
2022-09-18T04:40:57.081Z,6.00
2022-09-18T04:41:57.057Z,5.00
2022-09-18T04:42:57.023Z,6.00
2022-09-18T04:43:57.015Z,6.00
2022-09-18T04:44:57.005Z,6.00
2022-09-18T04:45:56.984Z,6.00
2022-09-18T04:46:57.064Z,7.00
2022-09-18T04:47:56.975Z,7.00
2022-09-18T04:48:56.965Z,7.00
2022-09-18T04:49:56.952Z,8.00
2022-09-18T04:50:56.946Z,8.00
2022-09-18T04:51:56.936Z,9.00
2022-09-18T04:52:56.952Z,9.00
2022-09-18T04:53:56.906Z,9.00
2022-09-18T04:54:56.903Z,10.00
2022-09-18T04:55:56.886Z,10.00
2022-09-18T04:56:56.882Z,11.00
2022-09-18T04:57:56.877Z,12.00
2022-09-18T04:58:56.884Z,12.00
2022-09-18T04:59:56.853Z,13.00
2022-09-18T05:00:56.931Z,13.00
2022-09-18T05:01:56.862Z,14.00
2022-09-18T05:02:56.817Z,16.00
2022-09-18T05:03:56.813Z,16.00
2022-09-18T05:04:56.818Z,17.00
2022-09-18T05:05:56.793Z,17.00
2022-09-18T05:06:56.777Z,18.00
2022-09-18T05:07:56.768Z,17.00
2022-09-18T05:08:56.757Z,16.00
2022-09-18T05:09:56.749Z,15.00
2022-09-18T05:10:56.761Z,14.00
2022-09-18T05:11:56.720Z,14.00
2022-09-18T05:12:56.716Z,15.00
2022-09-18T05:13:56.794Z,17.00
2022-09-18T05:14:56.691Z,21.00
2022-09-18T05:15:56.712Z,26.00
2022-09-18T05:16:56.699Z,30.00
2022-09-18T05:17:56.663Z,34.00
2022-09-18T05:18:56.652Z,36.00
2022-09-18T05:19:56.640Z,38.00
2022-09-18T05:20:56.633Z,40.00
2022-09-18T05:21:56.612Z,43.00
2022-09-18T05:22:56.640Z,45.00
2022-09-18T05:23:56.591Z,46.00
2022-09-18T05:24:56.593Z,47.00
2022-09-18T05:25:56.574Z,49.00
2022-09-18T05:26:56.562Z,50.00
2022-09-18T05:27:56.562Z,50.00
2022-09-18T05:28:56.582Z,52.00
2022-09-18T05:29:56.524Z,52.00
2022-09-18T05:30:56.594Z,54.00
2022-09-18T05:31:56.510Z,55.00
2022-09-18T05:32:58.880Z,57.00
2022-09-18T05:33:56.483Z,58.00
2022-09-18T05:34:56.504Z,61.00
2022-09-18T05:35:56.465Z,63.00
2022-09-18T05:36:56.454Z,66.00
2022-09-18T05:37:56.456Z,69.00
2022-09-18T05:38:56.443Z,71.00
2022-09-18T05:39:56.490Z,73.00
2022-09-18T05:40:56.445Z,75.00
2022-09-18T05:41:56.404Z,78.00
2022-09-18T05:42:56.397Z,80.00
2022-09-18T05:43:56.384Z,84.00
2022-09-18T05:44:59.893Z,86.00
2022-09-18T05:45:57.389Z,89.00
2022-09-18T05:46:56.404Z,92.00
2022-09-18T05:47:56.347Z,95.00
2022-09-18T05:48:56.328Z,97.00
2022-09-18T05:49:56.325Z,100.00
2022-09-18T05:50:56.308Z,103.00
2022-09-18T05:51:56.338Z,106.00
2022-09-18T05:52:56.294Z,109.00
2022-09-18T05:53:56.278Z,112.00
2022-09-18T05:54:56.269Z,115.00
2022-09-18T05:55:56.251Z,120.00
2022-09-18T05:56:56.246Z,123.00
2022-09-18T05:57:56.267Z,126.00
2022-09-18T05:58:56.228Z,129.00
2022-09-18T05:59:56.224Z,133.00
2022-09-18T06:00:56.220Z,136.00
2022-09-18T06:01:56.248Z,139.00
2022-09-18T06:02:56.250Z,141.00
2022-09-18T06:03:56.200Z,143.00
2022-09-18T06:04:56.168Z,147.00
2022-09-18T06:05:56.149Z,153.00
2022-09-18T06:06:56.140Z,158.00
2022-09-18T06:07:59.630Z,161.00
2022-09-18T06:08:56.120Z,162.00
2022-09-18T06:09:56.141Z,162.00
2022-09-18T06:10:56.102Z,161.00
2022-09-18T06:11:56.093Z,159.00
2022-09-18T06:12:56.083Z,158.00
2022-09-18T06:13:56.064Z,157.00
2022-09-18T06:14:56.062Z,157.00
2022-09-18T06:15:56.104Z,159.00
2022-09-18T06:16:56.040Z,161.00
2022-09-18T06:17:56.033Z,162.00
2022-09-18T06:18:56.014Z,164.00
2022-09-18T06:19:56.013Z,166.00
2022-09-18T06:20:56.003Z,168.00
2022-09-18T06:21:56.014Z,168.00
2022-09-18T06:22:55.976Z,169.00
2022-09-18T06:23:55.965Z,172.00
2022-09-18T06:24:55.964Z,175.00
2022-09-18T06:25:55.948Z,179.00
2022-09-18T06:26:55.955Z,183.00
2022-09-18T06:27:55.953Z,186.00
2022-09-18T06:28:55.908Z,188.00
2022-09-18T06:29:55.897Z,188.00
2022-09-18T06:30:55.954Z,186.00
2022-09-18T06:31:55.915Z,184.00
2022-09-18T06:32:55.868Z,181.00
2022-09-18T06:33:55.889Z,180.00
2022-09-18T06:34:55.858Z,179.00
2022-09-18T06:35:55.838Z,179.00
2022-09-18T06:36:55.835Z,179.00
2022-09-18T06:37:55.827Z,179.00
2022-09-18T06:38:55.815Z,179.00
2022-09-18T06:39:55.851Z,179.00
2022-09-18T06:40:55.791Z,180.00
2022-09-18T06:41:55.779Z,178.00
2022-09-18T06:42:55.770Z,178.00
2022-09-18T06:43:55.752Z,176.00
2022-09-18T06:44:55.762Z,173.00
2022-09-18T06:45:55.772Z,170.00
2022-09-18T06:46:55.816Z,165.00
2022-09-18T06:47:55.731Z,160.00
2022-09-18T06:48:55.709Z,155.00
2022-09-18T06:49:55.692Z,151.00
2022-09-18T06:50:55.683Z,148.00
2022-09-18T06:51:55.703Z,149.00
2022-09-18T06:52:55.664Z,151.00
2022-09-18T06:53:55.647Z,153.00
2022-09-18T06:54:55.644Z,155.00
2022-09-18T06:55:55.632Z,156.00
2022-09-18T06:56:55.635Z,157.00
2022-09-18T06:57:55.645Z,159.00
2022-09-18T06:58:55.602Z,159.00
2022-09-18T06:59:55.586Z,160.00
2022-09-18T07:00:55.615Z,161.00
2022-09-18T07:01:55.661Z,161.00
2022-09-18T07:02:55.557Z,162.00
2022-09-18T07:03:55.585Z,161.00
2022-09-18T07:04:55.538Z,162.00
2022-09-18T07:05:55.527Z,164.00
2022-09-18T07:06:55.517Z,165.00
2022-09-18T07:07:55.517Z,168.00
2022-09-18T07:08:55.504Z,169.00
2022-09-18T07:09:55.518Z,170.00
2022-09-18T07:10:55.468Z,172.00
2022-09-18T07:11:55.467Z,174.00
2022-09-18T07:12:55.455Z,179.00
2022-09-18T07:13:55.465Z,184.00
2022-09-18T07:14:55.428Z,188.00
2022-09-18T07:15:55.509Z,190.00
2022-09-18T07:16:55.412Z,189.00
2022-09-18T07:17:55.409Z,188.00
2022-09-18T07:18:55.390Z,187.00
2022-09-18T07:19:55.381Z,188.00
2022-09-18T07:20:55.367Z,189.00
2022-09-18T07:21:55.396Z,192.00
2022-09-18T07:22:55.355Z,194.00
2022-09-18T07:23:55.344Z,197.00
2022-09-18T07:24:55.332Z,199.00
2022-09-18T07:25:55.324Z,203.00
2022-09-18T07:26:55.301Z,208.00
2022-09-18T07:27:55.323Z,215.00
2022-09-18T07:28:55.285Z,222.00
2022-09-18T07:29:55.274Z,226.00
2022-09-18T07:30:55.313Z,231.00
2022-09-18T07:31:55.263Z,232.00
2022-09-18T07:32:55.243Z,235.00
2022-09-18T07:33:55.266Z,237.00
2022-09-18T07:34:55.224Z,236.00
2022-09-18T07:35:55.216Z,234.00
2022-09-18T07:36:55.203Z,230.00
2022-09-18T07:37:55.197Z,228.00
2022-09-18T07:38:55.175Z,229.00
2022-09-18T07:39:55.261Z,236.00
2022-09-18T07:40:55.156Z,241.00
2022-09-18T07:41:55.145Z,244.00
2022-09-18T07:42:55.135Z,252.00
2022-09-18T07:43:55.127Z,264.00
2022-09-18T07:44:55.116Z,275.00
2022-09-18T07:45:55.145Z,280.00
2022-09-18T07:46:55.153Z,284.00
2022-09-18T07:47:55.102Z,298.00
2022-09-18T07:48:55.072Z,314.00
2022-09-18T07:49:55.067Z,314.00
2022-09-18T07:50:55.050Z,323.00
2022-09-18T07:51:55.084Z,337.00
2022-09-18T07:52:55.041Z,355.00
2022-09-18T07:53:55.022Z,375.00
2022-09-18T07:54:55.017Z,397.00
2022-09-18T07:55:55.000Z,424.00
2022-09-18T07:56:54.992Z,454.00
2022-09-18T07:57:55.023Z,530.00
2022-09-18T07:58:54.962Z,592.00
2022-09-18T07:59:54.960Z,592.00
2022-09-18T08:00:54.949Z,595.00
2022-09-18T08:01:55.054Z,460.00
2022-09-18T08:02:55.030Z,417.00
2022-09-18T08:03:54.944Z,394.00
2022-09-18T08:04:54.903Z,391.00
2022-09-18T08:05:54.891Z,395.00
2022-09-18T08:06:54.880Z,405.00
2022-09-18T08:07:54.886Z,429.00
2022-09-18T08:08:55.257Z,497.00
2022-09-18T08:09:54.874Z,667.00
2022-09-18T08:10:54.835Z,834.00
2022-09-18T08:11:54.826Z,1074.00
2022-09-18T08:12:54.818Z,1337.00
2022-09-18T08:13:54.803Z,1147.00
2022-09-18T08:14:54.787Z,938.00
2022-09-18T08:15:54.892Z,732.00
2022-09-18T08:16:54.768Z,675.00
2022-09-18T08:17:54.766Z,655.00
2022-09-18T08:18:54.751Z,612.00
2022-09-18T08:19:54.749Z,582.00
2022-09-18T08:20:54.729Z,549.00
2022-09-18T08:21:54.747Z,565.00
2022-09-18T08:22:54.708Z,577.00
2022-09-18T08:23:54.697Z,650.00
2022-09-18T08:24:54.688Z,926.00
2022-09-18T08:25:54.684Z,1075.00
2022-09-18T08:26:54.668Z,999.00
2022-09-18T08:27:54.698Z,853.00
2022-09-18T08:28:54.653Z,840.00
2022-09-18T08:29:54.637Z,721.00
2022-09-18T08:30:54.628Z,753.00
2022-09-18T08:31:54.698Z,978.00
2022-09-18T08:32:54.601Z,1290.00
2022-09-18T08:33:54.621Z,1188.00
2022-09-18T08:34:54.592Z,1579.00
2022-09-18T08:35:54.573Z,474.00
2022-09-18T08:36:54.558Z,387.00
2022-09-18T08:37:54.560Z,321.00
2022-09-18T08:38:54.532Z,283.00
2022-09-18T08:39:54.594Z,275.00
2022-09-18T08:40:54.520Z,274.00
2022-09-18T08:41:54.513Z,294.00
2022-09-18T08:42:54.504Z,344.00
2022-09-18T08:43:54.484Z,363.00
2022-09-18T08:44:54.477Z,353.00
2022-09-18T08:45:54.492Z,466.00
2022-09-18T08:46:54.545Z,783.00
2022-09-18T08:47:54.456Z,1038.00
2022-09-18T08:48:54.433Z,947.00
2022-09-18T08:49:54.426Z,778.00
2022-09-18T08:50:54.407Z,880.00
2022-09-18T08:51:54.427Z,1089.00
2022-09-18T08:52:54.387Z,1159.00
2022-09-18T08:53:54.378Z,1364.00
2022-09-18T08:54:54.368Z,1384.00
2022-09-18T08:55:54.357Z,1970.00
2022-09-18T08:56:54.339Z,683.00
2022-09-18T08:57:54.375Z,744.00
2022-09-18T08:58:54.320Z,900.00
2022-09-18T08:59:54.315Z,913.00
2022-09-18T09:00:54.365Z,807.00
2022-09-18T09:01:54.331Z,690.00
2022-09-18T09:02:54.279Z,459.00
2022-09-18T09:03:54.751Z,350.00
2022-09-18T09:04:54.261Z,361.00
2022-09-18T09:05:54.250Z,487.00
2022-09-18T09:06:54.242Z,685.00
2022-09-18T09:07:54.232Z,938.00
2022-09-18T09:08:54.221Z,1003.00
2022-09-18T09:09:54.244Z,712.00
2022-09-18T09:10:54.202Z,670.00
2022-09-18T09:11:54.199Z,750.00
2022-09-18T09:12:54.181Z,834.00
2022-09-18T09:13:54.163Z,770.00
2022-09-18T09:14:57.507Z,640.00
2022-09-18T09:15:54.234Z,585.00
2022-09-18T09:16:54.144Z,579.00
2022-09-18T09:17:54.136Z,532.00
2022-09-18T09:18:54.114Z,505.00
2022-09-18T09:19:54.106Z,494.00
2022-09-18T09:20:54.098Z,483.00
2022-09-18T09:21:54.119Z,472.00
2022-09-18T09:22:54.076Z,463.00
2022-09-18T09:23:54.070Z,463.00
2022-09-18T09:24:54.049Z,465.00
2022-09-18T09:25:54.058Z,469.00
2022-09-18T09:26:54.035Z,480.00
2022-09-18T09:27:54.057Z,494.00
2022-09-18T09:28:54.010Z,494.00
2022-09-18T09:29:54.005Z,497.00
2022-09-18T09:30:53.989Z,508.00
2022-09-18T09:31:54.014Z,524.00
2022-09-18T09:32:53.971Z,572.00
2022-09-18T09:33:53.988Z,598.00
2022-09-18T09:34:53.950Z,547.00
2022-09-18T09:35:53.939Z,557.00
2022-09-18T09:36:53.931Z,547.00
2022-09-18T09:37:53.922Z,480.00
2022-09-18T09:38:53.905Z,451.00
2022-09-18T09:39:53.955Z,444.00
2022-09-18T09:40:53.884Z,424.00
2022-09-18T09:41:53.875Z,405.00
2022-09-18T09:42:53.862Z,407.00
2022-09-18T09:43:53.856Z,428.00
2022-09-18T09:44:53.842Z,393.00
2022-09-18T09:45:53.864Z,377.00
2022-09-18T09:46:53.856Z,376.00
2022-09-18T09:47:53.814Z,391.00
2022-09-18T09:48:53.805Z,433.00
2022-09-18T09:49:53.798Z,484.00
2022-09-18T09:50:53.777Z,535.00
2022-09-18T09:51:53.803Z,501.00
2022-09-18T09:52:53.756Z,529.00
2022-09-18T09:53:53.753Z,547.00
2022-09-18T09:54:53.736Z,592.00
2022-09-18T09:55:53.735Z,616.00
2022-09-18T09:56:53.716Z,683.00
2022-09-18T09:57:53.735Z,693.00
2022-09-18T09:58:53.699Z,697.00
2022-09-18T09:59:53.690Z,716.00
2022-09-18T10:00:53.720Z,741.00
2022-09-18T10:01:53.707Z,756.00
2022-09-18T10:02:53.658Z,766.00
2022-09-18T10:03:53.680Z,779.00
2022-09-18T10:04:53.631Z,788.00
2022-09-18T10:05:54.013Z,808.00
2022-09-18T10:06:53.619Z,813.00
2022-09-18T10:07:53.609Z,803.00
2022-09-18T10:08:53.591Z,814.00
2022-09-18T10:09:53.622Z,834.00
2022-09-18T10:10:53.573Z,859.00
2022-09-18T10:11:57.096Z,889.00
2022-09-18T10:12:53.553Z,916.00
2022-09-18T10:13:53.546Z,955.00
2022-09-18T10:14:53.533Z,1002.00
2022-09-18T10:15:53.588Z,1054.00
2022-09-18T10:16:53.512Z,1089.00
2022-09-18T10:17:53.506Z,1141.00
2022-09-18T10:18:53.486Z,1123.00
2022-09-18T10:19:53.483Z,928.00
2022-09-18T10:20:53.465Z,793.00
2022-09-18T10:21:53.480Z,722.00
2022-09-18T10:22:53.444Z,539.00
2022-09-18T10:23:53.435Z,417.00
2022-09-18T10:24:53.429Z,373.00
2022-09-18T10:25:53.417Z,369.00
2022-09-18T10:26:53.400Z,358.00
2022-09-18T10:27:53.418Z,337.00
2022-09-18T10:28:53.378Z,314.00
2022-09-18T10:29:53.371Z,299.00
2022-09-18T10:30:53.366Z,289.00
2022-09-18T10:31:53.437Z,284.00
2022-09-18T10:32:53.347Z,278.00
2022-09-18T10:33:53.367Z,274.00
2022-09-18T10:34:53.320Z,274.00
2022-09-18T10:35:53.312Z,280.00
2022-09-18T10:36:53.293Z,284.00
2022-09-18T10:37:53.292Z,282.00
2022-09-18T10:38:53.272Z,281.00
2022-09-18T10:39:53.336Z,284.00
2022-09-18T10:40:53.253Z,297.00
2022-09-18T10:41:53.244Z,320.00
2022-09-18T10:42:53.223Z,348.00
2022-09-18T10:43:53.222Z,372.00
2022-09-18T10:44:54.911Z,387.00
2022-09-18T10:45:53.227Z,397.00
2022-09-18T10:46:53.236Z,401.00
2022-09-18T10:47:53.183Z,404.00
2022-09-18T10:48:53.165Z,402.00
2022-09-18T10:49:53.156Z,402.00
2022-09-18T10:50:53.143Z,404.00
2022-09-18T10:51:53.156Z,400.00
2022-09-18T10:52:53.126Z,378.00
2022-09-18T10:53:53.117Z,353.00
2022-09-18T10:54:53.097Z,342.00
2022-09-18T10:55:55.896Z,335.00
2022-09-18T10:56:53.079Z,332.00
2022-09-18T10:57:53.107Z,328.00
2022-09-18T10:58:53.061Z,322.00
2022-09-18T10:59:53.049Z,316.00
2022-09-18T11:00:53.104Z,311.00
2022-09-18T11:01:53.057Z,305.00
2022-09-18T11:02:53.022Z,1320.00
2022-09-18T11:03:53.030Z,1306.00
2022-09-18T11:04:53.012Z,1278.00
2022-09-18T11:05:52.990Z,1267.00
2022-09-18T11:06:52.980Z,1266.00
2022-09-18T11:07:52.962Z,1272.00
2022-09-18T11:08:52.952Z,1275.00
2022-09-18T11:09:52.979Z,1285.00
2022-09-18T11:10:52.933Z,1282.00
2022-09-18T11:11:52.928Z,1282.00
2022-09-18T11:12:55.729Z,1295.00
2022-09-18T11:13:52.893Z,1310.00
2022-09-18T11:14:52.883Z,1323.00
2022-09-18T11:15:53.850Z,1354.00
2022-09-18T11:16:52.865Z,669.00
2022-09-18T11:17:52.854Z,568.00
2022-09-18T11:18:52.843Z,672.00
2022-09-18T11:19:52.833Z,665.00
2022-09-18T11:20:52.835Z,814.00
2022-09-18T11:21:52.847Z,1135.00
2022-09-18T11:22:52.814Z,1110.00
2022-09-18T11:23:52.788Z,1105.00
2022-09-18T11:24:52.789Z,1106.00
2022-09-18T11:25:52.771Z,1107.00
2022-09-18T11:26:52.767Z,1111.00
2022-09-18T11:27:52.789Z,1116.00
2022-09-18T11:28:52.740Z,1121.00
2022-09-18T11:29:52.738Z,1131.00
2022-09-18T11:30:54.169Z,1153.00
2022-09-18T11:31:52.793Z,1178.00
2022-09-18T11:32:52.702Z,1233.00
2022-09-18T11:33:52.718Z,1320.00
2022-09-18T11:34:52.681Z,1428.00
2022-09-18T11:35:52.660Z,1300.00
2022-09-18T11:36:52.661Z,991.00
2022-09-18T11:37:52.643Z,850.00
2022-09-18T11:38:52.642Z,575.00
2022-09-18T11:39:52.673Z,482.00
2022-09-18T11:40:52.613Z,430.00
2022-09-18T11:41:52.605Z,394.00
2022-09-18T11:42:52.594Z,358.00
2022-09-18T11:43:52.581Z,307.00
2022-09-18T11:44:52.574Z,256.00
2022-09-18T11:45:52.588Z,228.00
2022-09-18T11:46:52.598Z,212.00
2022-09-18T11:47:52.539Z,203.00
2022-09-18T11:48:52.536Z,201.00
2022-09-18T11:49:52.516Z,204.00
2022-09-18T11:50:52.506Z,208.00
2022-09-18T11:51:52.530Z,213.00
2022-09-18T11:52:52.487Z,215.00
2022-09-18T11:53:52.474Z,216.00
2022-09-18T11:54:52.466Z,218.00
2022-09-18T11:55:52.462Z,220.00
2022-09-18T11:56:52.447Z,225.00
2022-09-18T11:57:52.460Z,232.00
2022-09-18T11:58:52.426Z,240.00
2022-09-18T11:59:52.410Z,248.00
2022-09-18T12:00:52.409Z,257.00
2022-09-18T12:01:52.453Z,266.00
2022-09-18T12:02:52.471Z,276.00
2022-09-18T12:03:52.401Z,285.00
2022-09-18T12:04:52.360Z,292.00
2022-09-18T12:05:52.393Z,298.00
2022-09-18T12:06:52.340Z,305.00
2022-09-18T12:07:50.966Z,314.00
2022-09-18T12:08:50.956Z,318.00
2022-09-18T12:09:50.966Z,322.00
2022-09-18T12:10:50.934Z,327.00
2022-09-18T12:11:50.923Z,327.00
2022-09-18T12:12:50.913Z,326.00
2022-09-18T12:13:50.893Z,327.00
2022-09-18T12:14:50.885Z,330.00
2022-09-18T12:15:50.988Z,334.00
2022-09-18T12:16:50.863Z,331.00
2022-09-18T12:17:50.850Z,323.00
2022-09-18T12:18:50.842Z,307.00
2022-09-18T12:19:50.829Z,293.00
2022-09-18T12:20:50.820Z,290.00
2022-09-18T12:21:50.850Z,293.00
2022-09-18T12:22:50.798Z,303.00
2022-09-18T12:23:50.786Z,317.00
2022-09-18T12:24:50.775Z,328.00
2022-09-18T12:25:50.760Z,337.00
2022-09-18T12:26:50.753Z,356.00
2022-09-18T12:27:50.790Z,977.00
2022-09-18T12:28:50.729Z,954.00
2022-09-18T12:29:50.712Z,869.00
2022-09-18T12:30:50.712Z,884.00
2022-09-18T12:31:50.720Z,1046.00
2022-09-18T12:32:50.682Z,1149.00
2022-09-18T12:33:50.701Z,1886.00
2022-09-18T12:34:50.661Z,557.00
2022-09-18T12:35:50.644Z,462.00
2022-09-18T12:36:50.643Z,446.00
2022-09-18T12:37:50.620Z,408.00
2022-09-18T12:38:51.291Z,390.00
2022-09-18T12:39:51.372Z,375.00
2022-09-18T12:40:51.269Z,366.00
2022-09-18T12:41:51.253Z,359.00
2022-09-18T12:42:51.240Z,356.00
2022-09-18T12:43:51.222Z,356.00
2022-09-18T12:44:51.220Z,358.00
2022-09-18T12:45:51.258Z,363.00
2022-09-18T12:46:51.197Z,362.00
2022-09-18T12:47:51.179Z,354.00